createdAt,value
2018-11-26T00:01:35.036Z,10.67
2018-11-26T00:04:03.122Z,10.47
2018-11-26T00:06:31.245Z,10.13
2018-11-26T00:08:59.375Z,11.53
2018-11-26T00:11:36.423Z,9.97
2018-11-26T00:14:05.273Z,10.97
2018-11-26T00:16:33.678Z,11.17
2018-11-26T00:19:01.841Z,11.67
2018-11-26T00:21:29.987Z,10.63
2018-11-26T00:23:58.319Z,10.30
2018-11-26T00:26:26.498Z,10.47
2018-11-26T00:28:54.676Z,9.83
2018-11-26T00:31:22.776Z,9.90
2018-11-26T00:33:51.008Z,9.47
2018-11-26T00:36:19.153Z,10.50
2018-11-26T00:38:47.458Z,9.57
2018-11-26T00:41:15.559Z,9.93
2018-11-26T00:43:43.706Z,9.80
2018-11-26T00:46:11.913Z,9.90
2018-11-26T00:48:40.103Z,9.93
2018-11-26T00:51:08.276Z,9.60
2018-11-26T00:53:36.395Z,9.37
2018-11-26T00:56:04.885Z,9.63
2018-11-26T00:58:33.088Z,9.93
2018-11-26T01:01:01.192Z,9.70
2018-11-26T01:03:29.535Z,9.67
2018-11-26T01:05:57.665Z,9.03
2018-11-26T01:08:25.822Z,9.13
2018-11-26T01:10:53.947Z,9.53
2018-11-26T01:13:22.063Z,9.10
2018-11-26T01:15:50.195Z,8.63
2018-11-26T01:18:18.307Z,9.43
2018-11-26T01:20:46.463Z,9.07
2018-11-26T01:23:14.695Z,9.17
2018-11-26T01:25:42.807Z,9.00
2018-11-26T01:28:10.979Z,8.50
2018-11-26T01:30:39.158Z,9.30
2018-11-26T01:33:07.383Z,8.97
2018-11-26T01:35:35.489Z,8.87
2018-11-26T01:38:03.643Z,8.97
2018-11-26T01:40:37.147Z,8.47
2018-11-26T01:43:06.031Z,8.73
2018-11-26T01:45:34.177Z,8.93
2018-11-26T01:48:02.322Z,7.87
2018-11-26T01:50:30.584Z,8.63
2018-11-26T01:52:58.703Z,8.30
2018-11-26T01:55:26.852Z,9.17
2018-11-26T01:57:55.191Z,9.53
2018-11-26T02:00:25.620Z,9.07
2018-11-26T02:02:53.928Z,9.40
2018-11-26T02:05:22.079Z,8.73
2018-11-26T02:07:50.248Z,8.10
2018-11-26T02:10:19.395Z,8.43
2018-11-26T02:12:47.895Z,8.30
2018-11-26T02:15:27.527Z,8.87
2018-11-26T02:17:55.631Z,8.40
2018-11-26T02:20:24.232Z,8.70
2018-11-26T02:22:52.499Z,7.60
2018-11-26T02:25:20.665Z,7.73
2018-11-26T02:27:48.780Z,7.23
2018-11-26T02:30:17.111Z,8.80
2018-11-26T02:32:45.309Z,7.97
2018-11-26T02:35:13.391Z,8.33
2018-11-26T02:37:41.483Z,9.10
2018-11-26T02:40:12.995Z,8.00
2018-11-26T02:42:41.309Z,8.57
2018-11-26T02:45:09.461Z,8.27
2018-11-26T02:47:37.587Z,8.33
2018-11-26T02:50:05.699Z,8.20
2018-11-26T02:52:33.787Z,8.00
2018-11-26T02:55:02.181Z,8.33
2018-11-26T02:57:30.292Z,8.53
2018-11-26T02:59:58.447Z,7.73
2018-11-26T03:02:26.535Z,8.13
2018-11-26T03:04:54.675Z,7.47
2018-11-26T03:07:23.146Z,8.17
2018-11-26T03:09:51.347Z,8.20
2018-11-26T03:12:19.487Z,7.67
2018-11-26T03:14:47.583Z,7.43
2018-11-26T03:17:15.667Z,7.63
2018-11-26T03:19:43.803Z,8.57
2018-11-26T03:22:11.943Z,7.80
2018-11-26T03:24:40.086Z,7.97
2018-11-26T03:27:08.307Z,7.63
2018-11-26T03:29:36.396Z,8.10
2018-11-26T03:32:04.623Z,7.50
2018-11-26T03:34:32.779Z,8.53
2018-11-26T03:37:00.901Z,7.63
2018-11-26T03:39:29.003Z,7.70
2018-11-26T03:41:57.151Z,7.70
2018-11-26T03:44:25.276Z,7.60
2018-11-26T03:46:53.390Z,7.37
2018-11-26T03:49:21.511Z,7.60
2018-11-26T03:51:49.672Z,8.23
2018-11-26T03:54:17.819Z,8.27
2018-11-26T03:56:45.951Z,7.87
2018-11-26T03:59:14.133Z,7.80
2018-11-26T04:01:42.353Z,7.40
2018-11-26T04:04:10.507Z,7.80
2018-11-26T04:06:38.640Z,7.17
2018-11-26T04:09:08.223Z,7.43
2018-11-26T04:11:36.623Z,7.10
2018-11-26T04:14:04.767Z,6.83
2018-11-26T04:16:32.895Z,7.60
2018-11-26T04:19:01.031Z,7.43
2018-11-26T04:21:29.208Z,7.23
2018-11-26T04:23:58.355Z,7.03
2018-11-26T04:26:26.488Z,7.27
2018-11-26T04:28:54.728Z,7.53
2018-11-26T04:31:22.856Z,7.37
2018-11-26T04:33:50.967Z,8.93
2018-11-26T04:36:19.101Z,7.33
2018-11-26T04:38:47.235Z,7.67
2018-11-26T04:41:15.386Z,7.20
2018-11-26T04:43:43.603Z,7.37
2018-11-26T04:46:11.714Z,7.30
2018-11-26T04:48:39.868Z,7.50
2018-11-26T04:51:07.963Z,7.70
2018-11-26T04:53:36.077Z,7.50
2018-11-26T04:56:04.280Z,8.20
2018-11-26T04:58:32.475Z,7.07
2018-11-26T05:01:00.639Z,7.50
2018-11-26T05:03:28.808Z,7.10
2018-11-26T05:05:56.987Z,7.93
2018-11-26T05:08:25.084Z,6.67
2018-11-26T05:10:53.275Z,6.83
2018-11-26T05:13:21.404Z,7.47
2018-11-26T05:15:50.531Z,7.47
2018-11-26T05:18:18.646Z,8.03
2018-11-26T05:20:46.760Z,7.40
2018-11-26T05:23:14.891Z,6.43
2018-11-26T05:25:43.025Z,6.63
2018-11-26T05:28:11.232Z,8.03
2018-11-26T05:30:39.332Z,7.40
2018-11-26T05:33:07.436Z,7.50
2018-11-26T05:35:35.560Z,7.27
2018-11-26T05:38:03.655Z,8.37
2018-11-26T05:40:31.803Z,7.60
2018-11-26T05:42:59.922Z,8.90
2018-11-26T05:45:28.048Z,8.70
2018-11-26T05:47:56.182Z,8.80
2018-11-26T05:50:24.340Z,8.27
2018-11-26T05:52:52.674Z,8.73
2018-11-26T05:55:21.330Z,7.77
2018-11-26T05:57:48.928Z,8.23
2018-11-26T06:00:20.210Z,8.30
2018-11-26T06:02:48.326Z,7.53
2018-11-26T06:05:16.463Z,9.10
2018-11-26T06:07:44.588Z,8.30
2018-11-26T06:10:12.687Z,8.57
2018-11-26T06:12:40.807Z,9.23
2018-11-26T06:15:11.568Z,9.17
2018-11-26T06:17:39.911Z,9.00
2018-11-26T06:20:09.634Z,9.20
2018-11-26T06:22:37.701Z,9.00
2018-11-26T06:25:08.372Z,8.90
2018-11-26T06:27:36.470Z,10.43
2018-11-26T06:30:09.401Z,9.93
2018-11-26T06:32:37.498Z,9.30
2018-11-26T06:35:14.155Z,9.07
2018-11-26T06:37:42.283Z,9.17
2018-11-26T06:40:11.169Z,10.37
2018-11-26T06:42:39.320Z,10.80
2018-11-26T06:45:12.939Z,10.53
2018-11-26T06:47:41.512Z,9.57
2018-11-26T06:50:11.445Z,10.77
2018-11-26T06:52:39.704Z,10.20
2018-11-26T06:55:09.771Z,10.53
2018-11-26T06:57:37.974Z,10.33
2018-11-26T07:00:08.937Z,9.83
2018-11-26T07:02:37.071Z,10.23
2018-11-26T07:05:08.271Z,9.77
2018-11-26T07:07:36.368Z,11.10
2018-11-26T07:10:04.543Z,10.00
2018-11-26T07:12:32.631Z,10.77
2018-11-26T07:15:00.768Z,10.03
2018-11-26T07:17:28.948Z,9.30
2018-11-26T07:19:57.090Z,10.43
2018-11-26T07:22:25.563Z,9.83
2018-11-26T07:24:53.689Z,9.03
2018-11-26T07:27:21.792Z,9.70
2018-11-26T07:29:49.947Z,9.57
2018-11-26T07:32:18.615Z,9.50
2018-11-26T07:34:46.722Z,9.30
2018-11-26T07:37:14.823Z,9.47
2018-11-26T07:39:42.941Z,9.33
2018-11-26T07:42:11.037Z,9.53
2018-11-26T07:44:39.150Z,8.97
2018-11-26T07:47:08.097Z,8.27
2018-11-26T07:49:36.190Z,8.40
2018-11-26T07:52:04.735Z,8.57
2018-11-26T07:54:32.822Z,8.53
2018-11-26T07:57:01.939Z,8.97
2018-11-26T07:59:30.084Z,8.47
2018-11-26T08:01:58.171Z,9.20
2018-11-26T08:04:26.295Z,8.33
2018-11-26T08:06:54.395Z,8.80
2018-11-26T08:09:22.494Z,8.60
2018-11-26T08:11:50.591Z,8.30
2018-11-26T08:14:18.700Z,8.70
2018-11-26T08:16:46.844Z,8.50
2018-11-26T08:19:14.959Z,8.43
2018-11-26T08:21:43.059Z,8.57
2018-11-26T08:24:11.173Z,8.10
2018-11-26T08:26:39.267Z,8.40
2018-11-26T08:29:07.589Z,8.20
2018-11-26T08:31:35.699Z,9.20
2018-11-26T08:34:03.796Z,8.53
2018-11-26T08:36:33.779Z,7.90
2018-11-26T08:39:07.320Z,8.20
2018-11-26T08:41:36.959Z,7.87
2018-11-26T08:44:10.631Z,8.50
2018-11-26T08:46:44.202Z,8.03
2018-11-26T08:49:16.009Z,8.87
2018-11-26T08:51:44.207Z,8.97
2018-11-26T08:54:12.328Z,8.03
2018-11-26T08:56:40.655Z,8.03
2018-11-26T08:59:08.745Z,8.00
2018-11-26T09:01:44.115Z,8.40
2018-11-26T09:04:17.738Z,7.50
2018-11-26T09:06:46.071Z,8.07
2018-11-26T09:09:14.171Z,8.50
2018-11-26T09:11:42.263Z,7.57
2018-11-26T09:14:10.639Z,8.33
2018-11-26T09:16:38.786Z,7.93
2018-11-26T09:19:06.908Z,8.03
2018-11-26T09:21:35.052Z,8.10
2018-11-26T09:24:03.135Z,8.47
2018-11-26T09:26:31.237Z,8.57
2018-11-26T09:28:59.587Z,9.30
2018-11-26T09:31:27.675Z,8.80
2018-11-26T09:33:55.851Z,9.10
2018-11-26T09:36:24.551Z,8.17
2018-11-26T09:38:52.912Z,8.87
2018-11-26T09:41:21.651Z,8.53
2018-11-26T09:43:49.695Z,9.37
2018-11-26T09:46:17.858Z,8.17
2018-11-26T09:48:45.966Z,8.27
2018-11-26T09:51:14.479Z,8.17
2018-11-26T09:53:42.410Z,7.97
2018-11-26T09:56:10.491Z,8.00
2018-11-26T09:58:38.827Z,8.53
2018-11-26T10:01:06.929Z,7.60
2018-11-26T10:03:35.095Z,8.57
2018-11-26T10:06:03.757Z,8.43
2018-11-26T10:08:31.914Z,8.13
2018-11-26T10:10:59.955Z,8.67
2018-11-26T10:13:28.253Z,8.33
2018-11-26T10:15:56.363Z,8.07
2018-11-26T10:18:24.474Z,8.50
2018-11-26T10:20:53.988Z,7.07
2018-11-26T10:23:29.771Z,7.50
2018-11-26T10:25:58.941Z,8.23
2018-11-26T10:28:27.641Z,7.47
2018-11-26T10:30:56.356Z,7.97
2018-11-26T10:33:24.619Z,8.43
2018-11-26T10:35:59.941Z,7.17
2018-11-26T10:38:28.030Z,6.67
2018-11-26T10:40:56.107Z,7.57
2018-11-26T10:43:24.219Z,7.23
2018-11-26T10:45:52.360Z,7.50
2018-11-26T10:48:20.495Z,7.23
2018-11-26T10:50:48.813Z,6.83
2018-11-26T10:53:16.952Z,7.00
2018-11-26T10:55:45.069Z,7.80
2018-11-26T10:58:13.217Z,6.93
2018-11-26T11:00:45.568Z,6.80
2018-11-26T11:03:13.695Z,6.73
2018-11-26T11:05:41.847Z,6.97
2018-11-26T11:08:10.187Z,6.63
2018-11-26T11:10:38.291Z,6.57
2018-11-26T11:13:07.043Z,6.17
2018-11-26T11:15:35.456Z,6.53
2018-11-26T11:18:03.825Z,7.43
2018-11-26T11:20:32.011Z,6.20
2018-11-26T11:23:00.508Z,6.57
2018-11-26T11:25:28.632Z,6.90
2018-11-26T11:27:56.815Z,6.90
2018-11-26T11:30:27.332Z,5.93
2018-11-26T11:32:55.569Z,5.53
2018-11-26T11:35:23.838Z,6.70
2018-11-26T11:37:53.012Z,6.67
2018-11-26T11:40:25.693Z,6.80
2018-11-26T11:42:55.380Z,6.53
2018-11-26T11:45:24.029Z,6.77
2018-11-26T11:47:52.417Z,6.30
2018-11-26T11:50:21.328Z,6.93
2018-11-26T11:52:49.857Z,7.13
2018-11-26T11:55:19.047Z,6.47
2018-11-26T11:57:49.900Z,6.10
2018-11-26T12:00:29.474Z,6.60
2018-11-26T12:02:57.637Z,6.43
2018-11-26T12:05:26.132Z,6.23
2018-11-26T12:07:54.257Z,6.37
2018-11-26T12:10:22.393Z,7.13
2018-11-26T12:12:50.532Z,5.87
2018-11-26T12:15:18.712Z,6.77
2018-11-26T12:17:47.735Z,6.90
2018-11-26T12:20:16.437Z,6.60
2018-11-26T12:22:45.013Z,6.30
2018-11-26T12:25:15.341Z,8.13
2018-11-26T12:27:43.484Z,6.57
2018-11-26T12:30:17.990Z,6.90
2018-11-26T12:32:46.075Z,6.10
2018-11-26T12:35:14.276Z,7.07
2018-11-26T12:37:42.412Z,6.87
2018-11-26T12:40:16.044Z,6.83
2018-11-26T12:42:44.254Z,6.07
2018-11-26T12:45:28.508Z,6.97
2018-11-26T12:47:56.765Z,6.40
2018-11-26T12:50:24.981Z,6.90
2018-11-26T12:52:53.117Z,6.63
2018-11-26T12:55:22.921Z,5.97
2018-11-26T12:57:53.186Z,6.40
2018-11-26T13:00:22.522Z,6.50
2018-11-26T13:03:00.021Z,6.17
2018-11-26T13:05:28.123Z,6.67
2018-11-26T13:07:59.190Z,6.10
2018-11-26T13:10:30.370Z,6.27
2018-11-26T13:12:58.617Z,6.97
2018-11-26T13:15:31.139Z,6.63
2018-11-26T13:17:59.760Z,6.87
2018-11-26T13:20:31.110Z,6.93
2018-11-26T13:23:00.956Z,7.30
2018-11-26T13:25:35.206Z,6.37
2018-11-26T13:28:33.693Z,6.57
2018-11-26T13:31:01.881Z,6.70
2018-11-26T13:33:30.405Z,6.33
2018-11-26T13:35:59.481Z,6.67
2018-11-26T13:38:30.206Z,7.03
2018-11-26T13:41:01.190Z,6.37
2018-11-26T13:43:29.386Z,7.30
2018-11-26T13:45:57.532Z,6.53
2018-11-26T13:48:25.685Z,6.17
2018-11-26T13:50:55.972Z,6.33
2018-11-26T13:53:24.138Z,6.60
2018-11-26T13:55:52.525Z,6.60
2018-11-26T13:58:21.226Z,6.20
2018-11-26T14:00:49.414Z,6.35
2018-11-26T14:03:25.815Z,6.77
2018-11-26T14:05:54.010Z,6.53
2018-11-26T14:08:22.195Z,6.67
2018-11-26T14:10:51.302Z,6.73
2018-11-26T14:13:19.838Z,7.07
2018-11-26T14:15:48.819Z,6.93
2018-11-26T14:18:16.916Z,6.73
2018-11-26T14:20:45.200Z,6.97
2018-11-26T14:23:13.413Z,6.90
2018-11-26T14:25:41.609Z,7.43
2018-11-26T14:28:09.782Z,6.47
2018-11-26T14:30:38.132Z,7.07
2018-11-26T14:33:07.002Z,5.97
2018-11-26T14:35:35.181Z,6.83
2018-11-26T14:38:09.983Z,5.83
2018-11-26T14:40:46.992Z,6.53
2018-11-26T14:43:15.545Z,6.67
2018-11-26T14:45:43.840Z,6.57
2018-11-26T14:48:12.111Z,7.37
2018-11-26T14:50:40.205Z,6.47
2018-11-26T14:53:10.066Z,6.90
2018-11-26T14:55:38.590Z,6.50
2018-11-26T14:58:07.927Z,6.53
2018-11-26T15:00:36.181Z,6.87
2018-11-26T15:03:04.721Z,6.40
2018-11-26T15:05:33.034Z,6.47
2018-11-26T15:08:01.158Z,7.10
2018-11-26T15:10:29.313Z,6.97
2018-11-26T15:12:57.664Z,6.93
2018-11-26T15:15:26.520Z,6.83
2018-11-26T15:17:55.689Z,7.20
2018-11-26T15:20:25.521Z,6.90
2018-11-26T15:22:56.781Z,7.63
2018-11-26T15:25:28.923Z,6.10
2018-11-26T15:27:58.321Z,6.40
2018-11-26T15:30:26.730Z,6.10
2018-11-26T15:32:54.895Z,6.63
2018-11-26T15:35:23.919Z,7.07
2018-11-26T15:37:52.088Z,6.10
2018-11-26T15:40:21.205Z,6.13
2018-11-26T15:42:49.649Z,6.67
2018-11-26T15:45:19.682Z,6.20
2018-11-26T15:47:48.628Z,6.80
2018-11-26T15:50:17.334Z,6.70
2018-11-26T15:52:45.741Z,5.83
2018-11-26T15:55:16.742Z,6.00
2018-11-26T15:57:49.093Z,5.87
2018-11-26T16:00:24.520Z,5.43
2018-11-26T16:02:53.246Z,5.63
2018-11-26T16:05:27.298Z,5.50
2018-11-26T16:07:57.498Z,5.53
2018-11-26T16:10:26.075Z,6.83
2018-11-26T16:12:56.159Z,7.23
2018-11-26T16:15:27.053Z,5.70
2018-11-26T16:17:56.703Z,5.80
2018-11-26T16:20:25.933Z,6.17
2018-11-26T16:22:54.336Z,6.17
2018-11-26T16:25:24.576Z,6.43
2018-11-26T16:27:52.911Z,6.17
2018-11-26T16:30:21.032Z,5.60
2018-11-26T16:32:53.695Z,5.67
2018-11-26T16:35:24.217Z,7.53
2018-11-26T16:37:54.360Z,5.93
2018-11-26T16:40:22.934Z,5.80
2018-11-26T16:42:54.494Z,5.60
2018-11-26T16:45:24.767Z,5.93
2018-11-26T16:47:53.962Z,6.17
2018-11-26T16:50:25.161Z,5.77
2018-11-26T16:52:54.734Z,5.73
2018-11-26T16:55:24.451Z,5.20
2018-11-26T16:57:52.678Z,5.37
2018-11-26T17:00:29.818Z,5.50
2018-11-26T17:03:00.751Z,5.60
2018-11-26T17:05:43.289Z,5.97
2018-11-26T17:08:13.509Z,5.53
2018-11-26T17:10:44.806Z,5.43
2018-11-26T17:13:15.088Z,5.57
2018-11-26T17:15:43.735Z,7.37
2018-11-26T17:18:12.130Z,8.10
2018-11-26T17:20:40.428Z,7.90
2018-11-26T17:23:08.642Z,8.40
2018-11-26T17:25:37.045Z,8.13
2018-11-26T17:28:05.478Z,7.70
2018-11-26T17:30:33.680Z,7.63
2018-11-26T17:33:03.278Z,8.13
2018-11-26T17:35:49.098Z,7.23
2018-11-26T17:38:19.569Z,8.23
2018-11-26T17:41:12.784Z,7.43
2018-11-26T17:43:42.125Z,7.80
2018-11-26T17:46:10.610Z,8.43
2018-11-26T17:48:38.944Z,7.00
2018-11-26T17:51:07.318Z,6.67
2018-11-26T17:53:37.139Z,6.63
2018-11-26T18:13:37.786Z,6.53
2018-11-26T18:16:06.369Z,6.83
2018-11-26T18:18:34.661Z,6.97
2018-11-26T18:21:02.942Z,6.97
2018-11-26T18:23:32.699Z,6.00
2018-11-26T18:28:42.427Z,6.90
2018-11-26T18:31:10.879Z,6.37
2018-11-26T18:36:22.877Z,6.37
2018-11-26T18:39:10.030Z,6.37
2018-11-26T18:41:38.527Z,5.80
2018-11-26T18:44:06.841Z,5.90
2018-11-26T18:46:35.177Z,5.97
2018-11-26T18:49:03.591Z,6.10
2018-11-26T18:51:31.799Z,6.30
2018-11-26T18:54:00.140Z,6.37
2018-11-26T18:56:29.697Z,5.60
2018-11-26T18:58:58.129Z,5.67
2018-11-26T19:01:26.441Z,5.53
2018-11-26T19:03:54.647Z,5.03
2018-11-26T19:06:23.287Z,5.60
2018-11-26T19:08:51.884Z,5.97
2018-11-26T19:11:20.937Z,5.17
2018-11-26T19:14:08.058Z,5.00
2018-11-26T19:16:38.601Z,5.67
2018-11-26T19:19:07.112Z,5.73
2018-11-26T19:21:37.332Z,5.50
2018-11-26T19:24:08.458Z,5.53
2018-11-26T19:26:37.264Z,5.10
2018-11-26T19:29:05.901Z,5.07
2018-11-26T19:31:34.426Z,4.70
2018-11-26T19:34:03.988Z,5.80
2018-11-26T19:36:33.229Z,5.73
2018-11-26T19:39:01.496Z,5.47
2018-11-26T19:41:31.418Z,5.17
2018-11-26T19:44:01.256Z,5.10
2018-11-26T19:46:29.708Z,5.73
2018-11-26T19:48:57.875Z,4.80
2018-11-26T19:51:25.993Z,4.77
2018-11-26T19:53:55.309Z,4.80
2018-11-26T19:56:23.457Z,5.43
2018-11-26T19:59:01.540Z,5.07
2018-11-26T20:09:08.132Z,4.63
2018-11-26T20:11:36.259Z,4.77
2018-11-26T20:16:43.781Z,5.40
2018-11-26T20:19:11.893Z,5.20
2018-11-26T20:21:45.134Z,4.90
2018-11-26T20:24:13.288Z,4.73
2018-11-26T20:26:41.398Z,4.97
2018-11-26T20:29:09.738Z,4.30
2018-11-26T20:31:39.175Z,4.90
2018-11-26T20:34:07.885Z,4.77
2018-11-26T20:36:36.032Z,5.17
2018-11-26T20:39:06.581Z,5.37
2018-11-26T20:41:34.750Z,5.10
2018-11-26T20:44:03.105Z,4.20
2018-11-26T20:46:31.280Z,5.07
2018-11-26T20:48:59.390Z,4.50
2018-11-26T20:51:27.573Z,4.60
2018-11-26T20:53:56.008Z,4.40
2018-11-26T20:56:24.402Z,5.30
2018-11-26T20:58:52.553Z,5.03
2018-11-26T21:01:20.881Z,4.67
2018-11-26T21:03:49.453Z,5.10
2018-11-26T21:06:18.090Z,5.23
2018-11-26T21:08:47.785Z,5.10
2018-11-26T21:11:16.309Z,4.90
2018-11-26T21:13:46.369Z,4.27
2018-11-26T21:16:14.941Z,5.20
2018-11-26T21:18:43.330Z,4.57
2018-11-26T21:21:11.681Z,4.53
2018-11-26T21:23:40.135Z,5.73
2018-11-26T21:26:08.969Z,5.03
2018-11-26T21:28:37.477Z,5.00
2018-11-26T21:31:07.434Z,4.97
2018-11-26T21:33:36.093Z,4.43
2018-11-26T21:36:04.478Z,5.07
2018-11-26T21:38:33.980Z,4.70
2018-11-26T21:41:02.661Z,4.73
2018-11-26T21:43:31.552Z,4.47
2018-11-26T21:46:01.020Z,4.60
2018-11-26T21:48:29.388Z,5.13
2018-11-26T21:50:57.797Z,5.43
2018-11-26T21:53:26.196Z,5.50
2018-11-26T21:55:54.832Z,5.20
2018-11-26T21:58:23.261Z,5.30
2018-11-26T22:00:53.569Z,5.33
2018-11-26T22:03:23.154Z,4.70
2018-11-26T22:05:51.471Z,5.20
2018-11-26T22:08:19.833Z,5.10
2018-11-26T22:10:48.248Z,5.90
2018-11-26T22:13:18.384Z,5.33
2018-11-26T22:15:46.764Z,5.17
2018-11-26T22:18:15.257Z,4.53
2018-11-26T22:20:43.699Z,4.83
2018-11-26T22:23:15.891Z,4.90
2018-11-26T22:25:44.562Z,5.00
2018-11-26T22:28:14.533Z,5.00
2018-11-26T22:30:45.798Z,5.13
2018-11-26T22:33:14.233Z,5.07
2018-11-26T22:35:42.592Z,5.17
2018-11-26T22:38:11.384Z,5.23
2018-11-26T22:40:39.465Z,5.00
2018-11-26T22:43:07.590Z,4.87
2018-11-26T22:45:35.659Z,5.33
2018-11-26T22:48:08.263Z,5.27
2018-11-26T22:50:38.087Z,5.17
2018-11-26T22:53:09.898Z,4.50
2018-11-26T22:55:38.039Z,4.43
2018-11-26T22:58:12.333Z,4.43
2018-11-26T23:00:46.900Z,4.87
2018-11-26T23:03:16.320Z,5.87
2018-11-26T23:05:44.434Z,5.00
2018-11-26T23:08:12.486Z,5.90
2018-11-26T23:10:40.663Z,5.63
2018-11-26T23:13:09.045Z,5.53
2018-11-26T23:15:37.208Z,5.50
2018-11-26T23:18:05.989Z,5.63
2018-11-26T23:20:34.053Z,4.73
2018-11-26T23:23:02.360Z,5.17
2018-11-26T23:25:30.497Z,5.00
2018-11-26T23:27:58.592Z,4.87
2018-11-26T23:30:27.902Z,5.50
2018-11-26T23:32:57.179Z,5.17
2018-11-26T23:35:25.284Z,5.83
2018-11-26T23:37:53.431Z,5.33
2018-11-26T23:40:21.537Z,5.23
2018-11-26T23:42:49.658Z,4.77
2018-11-26T23:45:18.849Z,5.13
2018-11-26T23:47:47.012Z,5.07
2018-11-26T23:50:16.352Z,5.23
2018-11-26T23:52:44.868Z,5.47
2018-11-26T23:55:14.151Z,5.80
2018-11-26T23:57:42.261Z,5.10
